KJSV

Details ICAO KJSV
Name SALLISAW MUNI
Region United States
Timezone America/Chicago (UTC-6.0)
Plans Departing 0
Arriving 1
Stats Elevation 528 ft / 161 m (AMSL)
Location 35.438206° -94.802817°
Runways 1
Magnetic Variation 1.963° E
Sunrise 2017-12-15 13:22:34 UTC / 2017-12-15 07:22:34 Local
Sunset 2017-12-15 23:09:12 UTC / 2017-12-15 17:09:12 Local
Advertisement - Login to hide

Runways

ID Width Length Bearing (true) Bearing (mag) Surface Threshold Offset Overrun Length
17 75 ft / 23 m 4,010 ft / 1,222 m 180.31° 178.35° Asphalt 0 ft / 0 m 0 ft / 0 m
35 75 ft / 23 m 4,010 ft / 1,222 m 0.31° 358.35° Asphalt 0 ft / 0 m 0 ft / 0 m

Map

Weather


0- 5 10 15 20 25 30 35+ Temperature / ° C

Clouds and Precipitation
Forecast for 2017-12-15 18:00 UTC. Updated 35 minutes ago

Ground ~20,000 ft ~40,000 ft Winds

METAR

KJSV 151335Z AUTO 00000KT 10SM CLR M05/M06 A3024 RMK AO2

TAF

Not found

Frequencies

Recorded 118.47 MHz AWOS 3
Approach 120.90 MHz RAZORBACK APP/DEP
Unicom 122.70 MHz CTAF/UNICOM
Approach 134.52 MHz RAZORBACK APP/DEP
Warning: Do not use this data for real-world aviation or navigation. No guarantee of current accuracy is given.